Grande Italia — IBTF — position and weather

sailwx.info

Track history (hours):
 
Tides and Currents Weather Stations Pressure Air Temp Water Temp Dewpoint Dewpoint Depression Visibility Wind Speed Wind Dir Waves Ship Positions

Grande Italia

Last reported at 2017-Jan-14 14:32 UTC. Time now 2017-Jan-16 10:56 UTC.
Position N 34°14' E 032°52'.

Length 177 m; draft 8.5 m.

Type: Ship. MMSI: 247039300.

Date/timePositionNaut miles runAvg speedWind from/ knotsBaromVisibWave heightAir tempDewpointWater temp
2017-Jan-14 14:32N 34°14' E 032°52'1818.0
2017-Jan-14 13:33N 34°30' E 033°02'9 9.1
2017-Jan-14 12:31N 34°39' E 033°01'0 0.0
2017-Jan-14 11:31N 34°39' E 033°01'0 0.0
2017-Jan-14 10:31N 34°39' E 033°01'0 0.0
2017-Jan-14 09:31N 34°39' E 033°01'0 0.0
2017-Jan-14 08:33N 34°39' E 033°01'0 0.2
2017-Jan-14 07:33N 34°39' E 033°01'2 2.5
2017-Jan-14 06:33N 34°38' E 033°04'1 1.0
2017-Jan-14 05:33N 34°37' E 033°04'1 0.6
2017-Jan-14 04:33N 34°36' E 033°04'0 0.4
2017-Jan-14 03:33N 34°36' E 033°04'48215.6
2017-Jan-12 20:33N 37°35' E 023°50'1817.6
2017-Jan-12 19:33N 37°49' E 023°37'8 7.6
2017-Jan-12 18:28N 37°58' E 023°36'0 0.0
2017-Jan-12 17:31N 37°58' E 023°36'0 0.0
2017-Jan-12 16:31N 37°58' E 023°36'0 0.0
2017-Jan-12 15:31N 37°58' E 023°36'0 0.0
2017-Jan-12 14:31N 37°58' E 023°36'0 0.0
2017-Jan-12 13:31N 37°58' E 023°36'0 0.0
2017-Jan-12 12:31N 37°58' E 023°36'0 0.0
2017-Jan-12 11:31N 37°58' E 023°36'0 0.0
2017-Jan-12 10:28N 37°58' E 023°36'0 0.0
2017-Jan-12 09:33N 37°58' E 023°36'4 4.3
2017-Jan-12 08:33N 37°53' E 023°37'5 5.3
2017-Jan-12 07:33N 37°49' E 023°33'2 1.6
2017-Jan-12 06:31N 37°48' E 023°32'0 0.1
2017-Jan-12 05:31N 37°48' E 023°32'0 0.0
2017-Jan-12 04:31N 37°48' E 023°32'0 0.0
2017-Jan-12 03:31N 37°48' E 023°32'0 0.0
2017-Jan-12 02:31N 37°48' E 023°32'0 0.1
2017-Jan-12 01:31N 37°47' E 023°32'0 0.1
2017-Jan-12 00:32N 37°48' E 023°32'0 0.1
2017-Jan-11 23:31N 37°48' E 023°32'0 0.0
2017-Jan-11 22:31N 37°48' E 023°32'0 0.0
2017-Jan-11 21:31N 37°48' E 023°32'0 0.1
2017-Jan-11 20:31N 37°48' E 023°32'0 0.0
2017-Jan-11 19:31N 37°48' E 023°32'0 0.0
2017-Jan-11 18:31N 37°48' E 023°32'0 0.0
2017-Jan-11 17:31N 37°48' E 023°32'0 0.1
2017-Jan-11 16:31N 37°48' E 023°32'0 0.0
2017-Jan-11 15:22N 37°48' E 023°32'0 0.0
2017-Jan-11 14:31N 37°48' E 023°32'0 0.1
2017-Jan-11 13:31N 37°48' E 023°32'6 6.4
2017-Jan-11 12:34N 37°52' E 023°37'1615.9
2017-Jan-11 11:34N 37°38' E 023°46'1817.9
2017-Jan-11 10:34N 37°20' E 023°41'15711.8
2017-Jan-10 21:10N 37°49' E 020°26'51317.9
2017-Jan-09 16:33N 44°22' E 013°08'1817.8
2017-Jan-09 15:33N 44°39' E 013°01'1817.7
2017-Jan-09 14:34N 44°55' E 012°51'1717.5
2017-Jan-09 13:33N 45°09' E 012°36'1616.1
2017-Jan-09 12:33N 45°20' E 012°19'7 7.3
2017-Jan-09 11:33N 45°27' E 012°16'0 0.4
2017-Jan-09 10:33N 45°27' E 012°15'0 0.0
2017-Jan-09 09:33N 45°27' E 012°15'0 0.0
2017-Jan-09 08:33N 45°27' E 012°15'0 0.0
2017-Jan-09 07:33N 45°27' E 012°15'3 3.5
2017-Jan-09 06:33N 45°24' E 012°16'7 7.5
2017-Jan-09 05:34N 45°20' E 012°25'2 2.4
2017-Jan-09 04:33N 45°21' E 012°28'0 0.1
2017-Jan-09 03:32N 45°21' E 012°27'0 0.0
2017-Jan-09 02:32N 45°21' E 012°27'0 0.0
2017-Jan-09 01:32N 45°21' E 012°27'0 0.0
2017-Jan-09 00:32N 45°21' E 012°27'0 0.0
2017-Jan-08 23:32N 45°21' E 012°27'0 0.0
2017-Jan-08 22:32N 45°21' E 012°27'0 0.0
2017-Jan-08 21:32N 45°21' E 012°27'0 0.0
2017-Jan-08 20:32N 45°21' E 012°27'0 0.0
2017-Jan-08 19:32N 45°21' E 012°27'0 0.0
2017-Jan-08 18:32N 45°21' E 012°27'0 0.0
2017-Jan-08 17:32N 45°21' E 012°27'0 0.1
2017-Jan-08 16:33N 45°21' E 012°27'9 9.3
2017-Jan-08 15:33N 45°21' E 012°41'1616.1
2017-Jan-08 14:33N 45°28' E 013°01'1616.1
2017-Jan-08 13:33N 45°34' E 013°22'1414.1
2017-Jan-08 12:33N 45°34' E 013°42'1 1.4
2017-Jan-08 11:29N 45°33' E 013°44'0 0.0
2017-Jan-08 10:32N 45°33' E 013°44'0 0.0
2017-Jan-08 09:29N 45°33' E 013°44'0 0.0
2017-Jan-08 08:32N 45°33' E 013°44'0 0.0
2017-Jan-08 07:29N 45°33' E 013°44'0 0.0
2017-Jan-08 06:32N 45°33' E 013°44'0 0.0
2017-Jan-08 05:32N 45°33' E 013°44'0 0.0
2017-Jan-08 04:32N 45°33' E 013°44'0 0.0
2017-Jan-08 03:32N 45°33' E 013°44'0 0.0
2017-Jan-08 02:32N 45°33' E 013°44'0 0.0
2017-Jan-08 01:32N 45°33' E 013°44'0 0.0
2017-Jan-08 00:32N 45°33' E 013°44'0 0.0
2017-Jan-07 23:29N 45°33' E 013°44'0 0.0
2017-Jan-07 22:32N 45°33' E 013°44'3 2.6
2017-Jan-07 21:33N 45°34' E 013°41'4 4.0
2017-Jan-07 20:33N 45°35' E 013°35'8 7.7
2017-Jan-07 19:33N 45°42' E 013°37'5 5.0
2017-Jan-07 18:30N 45°47' E 013°33'0 0.0
2017-Jan-07 17:33N 45°47' E 013°33'0 0.0
2017-Jan-07 16:33N 45°47' E 013°33'0 0.0
2017-Jan-07 15:33N 45°47' E 013°33'0 0.0
2017-Jan-07 14:27N 45°47' E 013°33'0 0.0
2017-Jan-07 13:30N 45°47' E 013°33'0 0.0
2017-Jan-07 12:33N 45°47' E 013°33'0 0.0
2017-Jan-07 11:33N 45°47' E 013°33'0 0.0
2017-Jan-07 10:33N 45°47' E 013°33'0 0.0
2017-Jan-07 09:33N 45°47' E 013°33'0 0.0
2017-Jan-07 08:33N 45°47' E 013°33'0 0.0
2017-Jan-07 07:33N 45°47' E 013°33'0 0.0
2017-Jan-07 06:30N 45°47' E 013°33'0 0.0
2017-Jan-07 05:33N 45°47' E 013°33'0 0.0
2017-Jan-07 04:33N 45°47' E 013°33'0 0.0
2017-Jan-07 03:33N 45°47' E 013°33'0 0.0
2017-Jan-07 02:30N 45°47' E 013°33'0 0.0
2017-Jan-07 01:30N 45°47' E 013°33'0 0.0
2017-Jan-07 00:33N 45°47' E 013°33'0 0.0
2017-Jan-06 23:33N 45°47' E 013°33'0 0.0
2017-Jan-06 22:30N 45°47' E 013°33'0 0.0
2017-Jan-06 21:30N 45°47' E 013°33'0 0.0
2017-Jan-06 20:33N 45°47' E 013°33'0 0.0
2017-Jan-06 19:33N 45°47' E 013°33'0 0.0
2017-Jan-06 18:33N 45°47' E 013°33'0 0.0
2017-Jan-06 17:33N 45°47' E 013°33'0 0.0
2017-Jan-06 16:30N 45°47' E 013°33'0 0.0
2017-Jan-06 15:33N 45°47' E 013°33'6 6.4
2017-Jan-06 14:33N 45°42' E 013°38'1616.0
2017-Jan-06 13:33N 45°31' E 013°22'1515.1
2017-Jan-06 12:33N 45°18' E 013°11'1514.8
2017-Jan-06 11:33N 45°04' E 013°02'1716.7
2017-Jan-06 10:34N 44°52' E 012°47'1716.5
2017-Jan-06 09:33N 44°39' E 012°33'17 0.6
2017-Jan-05 06:24N 44°27' E 012°15'0 0.0
2017-Jan-05 04:12N 44°27' E 012°15'6 0.8
2017-Jan-04 21:04N 44°30' E 012°21'814.2
2017-Jan-04 20:32N 44°30' E 012°32'1514.1
2017-Jan-04 19:30N 44°27' E 012°52'1814.2
2017-Jan-04 18:16N 44°18' E 013°13'  
Track history (hours):
 
Tides and Currents Weather Stations Pressure Air Temp Water Temp Dewpoint Dewpoint Depression Visibility Wind Speed Wind Dir Waves Ship Positions

Grande Italia

Last reported at 2017-Jan-14 14:32 UTC. Time now 2017-Jan-16 10:56 UTC.
Position N 34°14' E 032°52'.

Length 177 m; draft 8.5 m.

Type: Ship. MMSI: 247039300.

Date/timePositionNaut miles runAvg speedWind from/ knotsBaromVisibWave heightAir tempDewpointWater temp
2017-Jan-14 14:32N 34°14' E 032°52'1818.0
2017-Jan-14 13:33N 34°30' E 033°02'9 9.1
2017-Jan-14 12:31N 34°39' E 033°01'0 0.0
2017-Jan-14 11:31N 34°39' E 033°01'0 0.0
2017-Jan-14 10:31N 34°39' E 033°01'0 0.0
2017-Jan-14 09:31N 34°39' E 033°01'0 0.0
2017-Jan-14 08:33N 34°39' E 033°01'0 0.2
2017-Jan-14 07:33N 34°39' E 033°01'2 2.5
2017-Jan-14 06:33N 34°38' E 033°04'1 1.0
2017-Jan-14 05:33N 34°37' E 033°04'1 0.6
2017-Jan-14 04:33N 34°36' E 033°04'0 0.4
2017-Jan-14 03:33N 34°36' E 033°04'48215.6
2017-Jan-12 20:33N 37°35' E 023°50'1817.6
2017-Jan-12 19:33N 37°49' E 023°37'8 7.6
2017-Jan-12 18:28N 37°58' E 023°36'0 0.0
2017-Jan-12 17:31N 37°58' E 023°36'0 0.0
2017-Jan-12 16:31N 37°58' E 023°36'0 0.0
2017-Jan-12 15:31N 37°58' E 023°36'0 0.0
2017-Jan-12 14:31N 37°58' E 023°36'0 0.0
2017-Jan-12 13:31N 37°58' E 023°36'0 0.0
2017-Jan-12 12:31N 37°58' E 023°36'0 0.0
2017-Jan-12 11:31N 37°58' E 023°36'0 0.0
2017-Jan-12 10:28N 37°58' E 023°36'0 0.0
2017-Jan-12 09:33N 37°58' E 023°36'4 4.3
2017-Jan-12 08:33N 37°53' E 023°37'5 5.3
2017-Jan-12 07:33N 37°49' E 023°33'2 1.6
2017-Jan-12 06:31N 37°48' E 023°32'0 0.1
2017-Jan-12 05:31N 37°48' E 023°32'0 0.0
2017-Jan-12 04:31N 37°48' E 023°32'0 0.0
2017-Jan-12 03:31N 37°48' E 023°32'0 0.0
2017-Jan-12 02:31N 37°48' E 023°32'0 0.1
2017-Jan-12 01:31N 37°47' E 023°32'0 0.1
2017-Jan-12 00:32N 37°48' E 023°32'0 0.1
2017-Jan-11 23:31N 37°48' E 023°32'0 0.0
2017-Jan-11 22:31N 37°48' E 023°32'0 0.0
2017-Jan-11 21:31N 37°48' E 023°32'0 0.1
2017-Jan-11 20:31N 37°48' E 023°32'0 0.0
2017-Jan-11 19:31N 37°48' E 023°32'0 0.0
2017-Jan-11 18:31N 37°48' E 023°32'0 0.0
2017-Jan-11 17:31N 37°48' E 023°32'0 0.1
2017-Jan-11 16:31N 37°48' E 023°32'0 0.0
2017-Jan-11 15:22N 37°48' E 023°32'0 0.0
2017-Jan-11 14:31N 37°48' E 023°32'0 0.1
2017-Jan-11 13:31N 37°48' E 023°32'6 6.4
2017-Jan-11 12:34N 37°52' E 023°37'1615.9
2017-Jan-11 11:34N 37°38' E 023°46'1817.9
2017-Jan-11 10:34N 37°20' E 023°41'15711.8
2017-Jan-10 21:10N 37°49' E 020°26'51317.9
2017-Jan-09 16:33N 44°22' E 013°08'1817.8
2017-Jan-09 15:33N 44°39' E 013°01'1817.7
2017-Jan-09 14:34N 44°55' E 012°51'1717.5
2017-Jan-09 13:33N 45°09' E 012°36'1616.1
2017-Jan-09 12:33N 45°20' E 012°19'7 7.3
2017-Jan-09 11:33N 45°27' E 012°16'0 0.4
2017-Jan-09 10:33N 45°27' E 012°15'0 0.0
2017-Jan-09 09:33N 45°27' E 012°15'0 0.0
2017-Jan-09 08:33N 45°27' E 012°15'0 0.0
2017-Jan-09 07:33N 45°27' E 012°15'3 3.5
2017-Jan-09 06:33N 45°24' E 012°16'7 7.5
2017-Jan-09 05:34N 45°20' E 012°25'2 2.4
2017-Jan-09 04:33N 45°21' E 012°28'0 0.1
2017-Jan-09 03:32N 45°21' E 012°27'0 0.0
2017-Jan-09 02:32N 45°21' E 012°27'0 0.0
2017-Jan-09 01:32N 45°21' E 012°27'0 0.0
2017-Jan-09 00:32N 45°21' E 012°27'0 0.0
2017-Jan-08 23:32N 45°21' E 012°27'0 0.0
2017-Jan-08 22:32N 45°21' E 012°27'0 0.0
2017-Jan-08 21:32N 45°21' E 012°27'0 0.0
2017-Jan-08 20:32N 45°21' E 012°27'0 0.0
2017-Jan-08 19:32N 45°21' E 012°27'0 0.0
2017-Jan-08 18:32N 45°21' E 012°27'0 0.0
2017-Jan-08 17:32N 45°21' E 012°27'0 0.1
2017-Jan-08 16:33N 45°21' E 012°27'9 9.3
2017-Jan-08 15:33N 45°21' E 012°41'1616.1
2017-Jan-08 14:33N 45°28' E 013°01'1616.1
2017-Jan-08 13:33N 45°34' E 013°22'1414.1
2017-Jan-08 12:33N 45°34' E 013°42'1 1.4
2017-Jan-08 11:29N 45°33' E 013°44'0 0.0
2017-Jan-08 10:32N 45°33' E 013°44'0 0.0
2017-Jan-08 09:29N 45°33' E 013°44'0 0.0
2017-Jan-08 08:32N 45°33' E 013°44'0 0.0
2017-Jan-08 07:29N 45°33' E 013°44'0 0.0
2017-Jan-08 06:32N 45°33' E 013°44'0 0.0
2017-Jan-08 05:32N 45°33' E 013°44'0 0.0
2017-Jan-08 04:32N 45°33' E 013°44'0 0.0
2017-Jan-08 03:32N 45°33' E 013°44'0 0.0
2017-Jan-08 02:32N 45°33' E 013°44'0 0.0
2017-Jan-08 01:32N 45°33' E 013°44'0 0.0
2017-Jan-08 00:32N 45°33' E 013°44'0 0.0
2017-Jan-07 23:29N 45°33' E 013°44'0 0.0
2017-Jan-07 22:32N 45°33' E 013°44'3 2.6
2017-Jan-07 21:33N 45°34' E 013°41'4 4.0
2017-Jan-07 20:33N 45°35' E 013°35'8 7.7
2017-Jan-07 19:33N 45°42' E 013°37'5 5.0
2017-Jan-07 18:30N 45°47' E 013°33'0 0.0
2017-Jan-07 17:33N 45°47' E 013°33'0 0.0
2017-Jan-07 16:33N 45°47' E 013°33'0 0.0
2017-Jan-07 15:33N 45°47' E 013°33'0 0.0
2017-Jan-07 14:27N 45°47' E 013°33'0 0.0
2017-Jan-07 13:30N 45°47' E 013°33'0 0.0
2017-Jan-07 12:33N 45°47' E 013°33'0 0.0
2017-Jan-07 11:33N 45°47' E 013°33'0 0.0
2017-Jan-07 10:33N 45°47' E 013°33'0 0.0
2017-Jan-07 09:33N 45°47' E 013°33'0 0.0
2017-Jan-07 08:33N 45°47' E 013°33'0 0.0
2017-Jan-07 07:33N 45°47' E 013°33'0 0.0
2017-Jan-07 06:30N 45°47' E 013°33'0 0.0
2017-Jan-07 05:33N 45°47' E 013°33'0 0.0
2017-Jan-07 04:33N 45°47' E 013°33'0 0.0
2017-Jan-07 03:33N 45°47' E 013°33'0 0.0
2017-Jan-07 02:30N 45°47' E 013°33'0 0.0
2017-Jan-07 01:30N 45°47' E 013°33'0 0.0
2017-Jan-07 00:33N 45°47' E 013°33'0 0.0
2017-Jan-06 23:33N 45°47' E 013°33'0 0.0
2017-Jan-06 22:30N 45°47' E 013°33'0 0.0
2017-Jan-06 21:30N 45°47' E 013°33'0 0.0
2017-Jan-06 20:33N 45°47' E 013°33'0 0.0
2017-Jan-06 19:33N 45°47' E 013°33'0 0.0
2017-Jan-06 18:33N 45°47' E 013°33'0 0.0
2017-Jan-06 17:33N 45°47' E 013°33'0 0.0
2017-Jan-06 16:30N 45°47' E 013°33'0 0.0
2017-Jan-06 15:33N 45°47' E 013°33'6 6.4
2017-Jan-06 14:33N 45°42' E 013°38'1616.0
2017-Jan-06 13:33N 45°31' E 013°22'1515.1
2017-Jan-06 12:33N 45°18' E 013°11'1514.8
2017-Jan-06 11:33N 45°04' E 013°02'1716.7
2017-Jan-06 10:34N 44°52' E 012°47'1716.5
2017-Jan-06 09:33N 44°39' E 012°33'17 0.6
2017-Jan-05 06:24N 44°27' E 012°15'0 0.0
2017-Jan-05 04:12N 44°27' E 012°15'6 0.8
2017-Jan-04 21:04N 44°30' E 012°21'814.2
2017-Jan-04 20:32N 44°30' E 012°32'1514.1
2017-Jan-04 19:30N 44°27' E 012°52'1814.2
2017-Jan-04 18:16N 44°18' E 013°13'  

Dump ship's entire track history